Hauptseite
METAR-TAF:

METAR-TAF

Flughäfen :

Sønderborg, Dänemark

Flughafen Sønderborg

Breite: 54-58N, Länge: 009-47E, Höhe: 7 m

Beobachtung

Neuester Wetterbericht von vor 26 Minuten, um 23:50 UTC
Wind 3 kt aus Ost
Temperatur 13°C
Luftfeuchtigkeit 88%
Luftdruck 1008 hPa
Sichtweite 10 km oder mehr

METAR: EKSB 272350Z AUTO 09003KT 9999NDV FEW096/// BKN140/// 13/11 Q1008

Zeit: 02:16 (00:16 UTC)

Prognose

Neuester Wetterbericht von vor 5 Stunden und 21 Minuten, um 18:55 UTC
Gültige Prognose vom 27 um 18 UTC bis 27 um 22 UTC
Wind 5 kt aus unterschiedlichen Richtungen
Sichtweite 10 km oder mehr
Leicht bewölkt in der Höhe von 4000 ft

TAF: EKSB 271855Z 2718/2722 VRB05KT 9999 FEW040

Wetterbeobachtungen und Prognosen von mehr als 4000 Flughäfen (METAR und TAF Bericht).

Die verfügbaren Stationen werden durch gelbe und rote Markierungen auf der Karte dargestellt.

Führen Sie die Maus auf sie, um den Namen der Station zu sehen.

Darauf klicken, um die Beobachtung von Wetterbeobachtungen und Prognosen zu sehen.

Um die Karte zu ändern : klicken Sie auf den grünen Tasten mit einem schwarzen Kreuz Zum Vergrößern, auf den grünen Button mit einem Gedankenstrich zu verkleinern, oder auf die grünen Pfeile für benachbarte Karten.


METAR-TAF: